PORT of GENTIL

Valsts: Gabon Valsts: Gabon [GA]
Platums / garums: -0.7095° / 8.7905° Rādīt kartē
Vietējais laiks:  [UTC +1]
UN/LOCODE: GAPOG
Kuģi pašreiz ostā: 19
Gaidāmās pienākšanas: 5

Nesenās pienākšanas un atiešanas


Kuģa nosaukums
Pienākšana (UTC)
Pienākšana (LT)
Atiešana (UTC)
Atiešana (LT)
Vessel Type: Pasažieru kuģi  MAMOLINO 2071 2014-08-27 14:56:00 2014-08-27 15:56:00
Vessel Type: Pasažieru kuģi  SURFER 2609 2014-08-27 13:13:00 2014-08-27 14:13:00
Vessel Type: Ātrgaitas peldlīdzeklis  SUSAN F.MCCALL 2014-08-27 12:00:00 2014-08-27 13:00:00
Vessel Type: Pasažieru kuģi  TAGOMAGO 2014-08-27 11:41:00 2014-08-27 12:41:00
Vessel Type: Pasažieru kuģi  TAGOMAGO 2014-08-26 11:20:00 2014-08-26 12:20:00 2014-08-27 11:27:00 2014-08-27 12:27:00
Vessel Type: Tankkuģi  CAP FERRET 2014-08-25 16:54:00 2014-08-25 17:54:00 2014-08-27 09:33:00 2014-08-27 10:33:00
Vessel Type: Ātrgaitas peldlīdzeklis  BOURBON EXPRESS 2014-08-26 15:55:00 2014-08-26 16:55:00 2014-08-27 09:09:00 2014-08-27 10:09:00
Vessel Type: Pasažieru kuģi  COTES DE BLAYE 2014-08-26 16:11:00 2014-08-26 17:11:00 2014-08-27 07:47:00 2014-08-27 08:47:00
Vessel Type: Pasažieru kuģi  SURFER 2609 2014-08-26 13:18:00 2014-08-26 14:18:00 2014-08-27 07:00:00 2014-08-27 08:00:00
Vessel Type: Pasažieru kuģi  MAMOLINO 2071 2014-08-26 15:55:00 2014-08-26 16:55:00 2014-08-27 06:49:00 2014-08-27 07:49:00

Gaidāmās pienākšanas


Kuģa nosaukums
Scheduled Arrival (UTC)
Paredzētā pienākšana (vietējais laiks)
Plānotā pienākšana (UTC)
Plānotais pienākšanas laiks (vietējais laiks)
Vessel Type: Kravas kuģi  SAFMARINE LONGA 2014-08-26 23:00:00 2014-08-27 00:00:00
EXPLORER 2014-08-30 18:00:00 2014-08-30 19:00:00 2014-09-03 04:48:00 2014-09-03 05:48:00
Vessel Type: Velkoņi, loču kuteri  SETTE CAMA 2014-09-01 03:30:00 2014-09-01 04:30:00 2014-08-27 02:51:00 2014-08-27 03:51:00
Vessel Type: Tankkuģi  MINERVA ANTONIA 2014-09-02 10:00:00 2014-09-02 11:00:00 2014-09-02 02:16:00 2014-09-02 03:16:00
Vessel Type: Tankkuģi  SEAFAITH II 2014-09-02 23:45:00 2014-09-03 00:45:00 2014-09-03 02:55:00 2014-09-03 03:55:00

Wind Forecast


    
Laiks (UTC)
Ātrums
DirectionDirection
Temperature
2014-08-27 15:00:00 7 knots 241° 25°C
2014-08-27 18:00:00 10 knots 239° 25°C
2014-08-27 21:00:00 11 knots 238° 25°C
2014-08-28 00:00:00 9 knots 228° 24°C
2014-08-28 03:00:00 9 knots 209° 24°C
2014-08-28 06:00:00 8 knots 193° 24°C
2014-08-28 09:00:00 9 knots 192° 24°C
2014-08-28 12:00:00 11 knots 204° 25°C
2014-08-28 15:00:00 14 knots 205° 25°C
2014-08-28 18:00:00 14 knots 205° 24°C
2014-08-28 21:00:00 13 knots 199° 24°C
2014-08-29 00:00:00 14 knots 197° 24°C
2014-08-29 03:00:00 12 knots 203° 24°C
2014-08-29 06:00:00 11 knots 192° 24°C
2014-08-29 09:00:00 11 knots 186° 25°C
2014-08-29 12:00:00 12 knots 202° 25°C
2014-08-29 15:00:00 14 knots 209° 25°C

NO_PHOTO

No Photos for this port. Be the first to upload one!